createdAt,value
2022-12-18T00:02:02.844Z,31.73
2022-12-18T00:04:32.442Z,39.53
2022-12-18T00:06:58.850Z,38.35
2022-12-18T00:09:39.549Z,42.88
2022-12-18T00:14:42.806Z,34.47
2022-12-18T00:17:12.484Z,35.97
2022-12-18T00:19:38.862Z,33.83
2022-12-18T00:22:23.297Z,34.63
2022-12-18T00:24:55.259Z,34.70
2022-12-18T00:27:21.660Z,37.08
2022-12-18T00:29:53.279Z,29.20
2022-12-18T00:32:19.652Z,28.45
2022-12-18T00:34:46.068Z,31.10
2022-12-18T00:37:16.832Z,25.33
2022-12-18T00:39:48.001Z,25.75
2022-12-18T00:42:32.980Z,26.10
2022-12-18T00:45:07.639Z,23.10
2022-12-18T00:47:40.525Z,24.90
2022-12-18T00:50:07.631Z,21.43
2022-12-18T00:52:34.120Z,22.70
2022-12-18T00:55:05.815Z,23.20
2022-12-18T00:57:32.716Z,27.55
2022-12-18T00:59:59.637Z,31.60
2022-12-18T01:02:26.285Z,25.33
2022-12-18T01:04:52.874Z,27.10
2022-12-18T01:07:19.370Z,34.42
2022-12-18T01:09:45.783Z,27.35
2022-12-18T01:12:12.142Z,28.27
2022-12-18T01:14:39.115Z,28.10
2022-12-18T01:17:05.870Z,19.42
2022-12-18T01:19:32.403Z,27.50
2022-12-18T01:22:00.116Z,34.38
2022-12-18T01:24:26.655Z,25.83
2022-12-18T01:26:53.066Z,28.17
2022-12-18T01:29:19.520Z,30.50
2022-12-18T01:31:46.199Z,29.27
2022-12-18T01:34:12.662Z,31.15
2022-12-18T01:36:39.980Z,30.75
2022-12-18T01:39:10.952Z,25.30
2022-12-18T01:41:56.683Z,29.48
2022-12-18T01:45:02.122Z,30.45
2022-12-18T01:47:53.473Z,29.90
2022-12-18T01:50:26.323Z,31.23
2022-12-18T01:52:56.293Z,30.80
2022-12-18T01:55:26.345Z,30.98
2022-12-18T01:57:59.585Z,27.40
2022-12-18T02:00:27.385Z,29.00
2022-12-18T02:02:54.527Z,27.23
2022-12-18T02:05:46.143Z,26.83
2022-12-18T02:08:49.281Z,26.15
2022-12-18T02:11:30.053Z,26.30
2022-12-18T02:14:08.631Z,23.58
2022-12-18T02:16:52.337Z,23.02
2022-12-18T02:19:49.521Z,21.27
2022-12-18T02:22:46.034Z,20.95
2022-12-18T02:25:50.146Z,25.27
2022-12-18T02:28:21.012Z,25.42
2022-12-18T02:30:50.558Z,23.40
2022-12-18T02:33:20.101Z,22.67
2022-12-18T02:35:48.043Z,23.73
2022-12-18T02:38:17.283Z,22.23
2022-12-18T02:40:45.047Z,21.15
2022-12-18T02:43:14.784Z,16.90
2022-12-18T02:45:48.585Z,24.07
2022-12-18T02:48:15.568Z,17.75
2022-12-18T02:51:00.998Z,17.80
2022-12-18T02:53:37.976Z,16.98
2022-12-18T02:56:26.045Z,14.27
2022-12-18T02:59:05.528Z,18.43
2022-12-18T03:01:35.097Z,16.95
2022-12-18T03:04:15.248Z,18.25
2022-12-18T03:06:48.189Z,18.80
2022-12-18T03:09:20.361Z,17.80
2022-12-18T03:12:26.703Z,15.90
2022-12-18T03:15:12.118Z,19.13
2022-12-18T03:17:47.374Z,18.38
2022-12-18T03:20:18.403Z,16.65
2022-12-18T03:22:51.342Z,22.55
2022-12-18T03:25:19.875Z,18.27
2022-12-18T03:27:50.391Z,15.88
2022-12-18T03:30:18.104Z,23.15
2022-12-18T03:33:04.075Z,22.80
2022-12-18T03:35:35.401Z,21.35
2022-12-18T03:38:02.187Z,21.50
2022-12-18T03:40:52.502Z,20.50
2022-12-18T03:43:32.552Z,15.50
2022-12-18T03:46:26.605Z,20.58
2022-12-18T03:49:01.303Z,21.17
2022-12-18T03:51:58.500Z,20.80
2022-12-18T03:54:28.782Z,18.35
2022-12-18T03:57:00.456Z,25.08
2022-12-18T03:59:29.857Z,18.20
2022-12-18T04:01:58.997Z,20.60
2022-12-18T04:04:28.430Z,19.43
2022-12-18T04:06:56.329Z,18.67
2022-12-18T04:09:22.978Z,14.98
2022-12-18T04:11:49.527Z,17.67
2022-12-18T04:14:18.183Z,22.85
2022-12-18T04:16:45.022Z,21.10
2022-12-18T04:19:11.720Z,19.65
2022-12-18T04:21:38.193Z,23.05
2022-12-18T04:24:04.818Z,20.25
2022-12-18T04:26:31.254Z,18.35
2022-12-18T04:28:57.667Z,15.37
2022-12-18T04:31:24.202Z,17.17
2022-12-18T04:33:50.651Z,17.85
2022-12-18T04:36:17.222Z,20.13
2022-12-18T04:38:43.692Z,20.90
2022-12-18T04:41:10.168Z,14.80
2022-12-18T04:43:36.715Z,15.70
2022-12-18T04:46:07.829Z,21.80
2022-12-18T04:48:35.686Z,15.50
2022-12-18T04:51:02.331Z,17.75
2022-12-18T04:53:28.857Z,20.60
2022-12-18T04:56:05.371Z,14.50
2022-12-18T04:58:32.171Z,19.80
2022-12-18T05:00:58.602Z,16.40
2022-12-18T05:03:25.058Z,16.33
2022-12-18T05:05:52.299Z,19.13
2022-12-18T05:08:19.547Z,17.00
2022-12-18T05:10:46.493Z,15.73
2022-12-18T05:13:12.830Z,15.52
2022-12-18T05:15:39.210Z,19.33
2022-12-18T05:18:05.958Z,14.90
2022-12-18T05:20:32.601Z,13.27
2022-12-18T05:22:59.135Z,15.23
2022-12-18T05:25:25.949Z,16.38
2022-12-18T05:27:52.331Z,15.35
2022-12-18T05:30:18.795Z,16.57
2022-12-18T05:32:45.210Z,17.05
2022-12-18T05:35:12.005Z,14.55
2022-12-18T05:37:42.929Z,15.70
2022-12-18T05:40:10.937Z,13.73
2022-12-18T05:42:37.479Z,17.83
2022-12-18T05:45:04.755Z,14.90
2022-12-18T05:47:31.344Z,14.32
2022-12-18T05:49:57.739Z,17.92
2022-12-18T05:52:24.650Z,16.25
2022-12-18T05:54:51.098Z,13.30
2022-12-18T05:57:17.622Z,18.40
2022-12-18T05:59:44.158Z,19.65
2022-12-18T06:02:10.688Z,18.40
2022-12-18T06:04:37.437Z,15.45
2022-12-18T06:07:03.819Z,13.03
2022-12-18T06:09:30.422Z,14.77
2022-12-18T06:11:56.889Z,15.98
2022-12-18T06:14:23.271Z,15.40
2022-12-18T06:16:52.314Z,20.23
2022-12-18T06:19:18.952Z,14.80
2022-12-18T06:21:45.584Z,15.75
2022-12-18T06:24:12.260Z,16.13
2022-12-18T06:26:39.858Z,18.63
2022-12-18T06:29:07.129Z,19.77
2022-12-18T06:31:33.811Z,19.37
2022-12-18T06:34:02.666Z,17.50
2022-12-18T06:36:29.647Z,18.70
2022-12-18T06:38:57.350Z,19.15
2022-12-18T06:41:24.324Z,24.55
2022-12-18T06:43:50.802Z,21.80
2022-12-18T06:46:17.540Z,26.75
2022-12-18T06:48:44.253Z,20.02
2022-12-18T06:51:10.666Z,21.63
2022-12-18T06:53:37.675Z,17.40
2022-12-18T06:56:10.205Z,20.63
2022-12-18T06:58:38.066Z,20.52
2022-12-18T07:01:06.787Z,19.98
2022-12-18T07:03:33.329Z,23.05
2022-12-18T07:05:59.960Z,16.73
2022-12-18T07:08:26.383Z,20.87
2022-12-18T07:10:56.274Z,16.88
2022-12-18T07:13:23.660Z,17.63
2022-12-18T07:15:50.570Z,20.08
2022-12-18T07:18:17.059Z,15.27
2022-12-18T07:20:43.423Z,16.93
2022-12-18T07:23:09.865Z,27.90
2022-12-18T07:25:37.961Z,20.08
2022-12-18T07:28:05.315Z,22.67
2022-12-18T07:30:31.916Z,20.52
2022-12-18T07:32:58.335Z,22.37
2022-12-18T07:35:25.386Z,26.17
2022-12-18T07:37:52.187Z,21.15
2022-12-18T07:40:18.633Z,18.38
2022-12-18T07:42:45.031Z,22.90
2022-12-18T07:45:11.798Z,28.87
2022-12-18T07:47:38.262Z,29.20
2022-12-18T07:50:05.616Z,30.40
2022-12-18T07:52:32.135Z,31.83
2022-12-18T07:54:59.584Z,28.05
2022-12-18T08:00:13.261Z,42.00
2022-12-18T08:02:39.766Z,24.85
2022-12-18T08:05:06.447Z,24.45
2022-12-18T08:07:33.661Z,24.15
2022-12-18T08:10:00.193Z,27.97
2022-12-18T08:12:26.605Z,25.35
2022-12-18T08:14:53.097Z,23.98
2022-12-18T08:17:20.952Z,74.70
2022-12-18T08:19:47.475Z,23.63
2022-12-18T08:22:13.935Z,25.53
2022-12-18T08:24:40.328Z,24.88
2022-12-18T08:27:28.278Z,23.45
2022-12-18T08:29:53.147Z,23.75
2022-12-18T08:32:19.744Z,60.67
2022-12-18T08:34:46.328Z,23.23
2022-12-18T08:37:12.715Z,30.02
2022-12-18T08:39:39.117Z,28.23
2022-12-18T08:42:24.156Z,29.38
2022-12-18T08:44:50.518Z,40.33
2022-12-18T08:47:17.056Z,31.93
2022-12-18T08:49:43.686Z,22.52
2022-12-18T08:52:10.120Z,23.17
2022-12-18T08:54:39.216Z,22.70
2022-12-18T08:57:05.653Z,19.90
2022-12-18T08:59:34.334Z,23.33
2022-12-18T09:02:00.981Z,27.52
2022-12-18T09:04:30.533Z,25.95
2022-12-18T09:06:56.961Z,22.30
2022-12-18T09:09:23.611Z,24.90
2022-12-18T09:11:50.121Z,20.43
2022-12-18T09:14:19.671Z,19.77
2022-12-18T09:16:46.763Z,22.33
2022-12-18T09:19:16.299Z,22.60
2022-12-18T09:21:48.263Z,21.02
2022-12-18T09:24:16.504Z,21.67
2022-12-18T09:26:50.702Z,24.58
2022-12-18T09:29:19.201Z,23.83
2022-12-18T09:31:47.385Z,24.02
2022-12-18T09:34:13.778Z,26.30
2022-12-18T09:36:40.202Z,24.43
2022-12-18T09:39:08.768Z,23.88
2022-12-18T09:41:41.607Z,26.13
2022-12-18T09:44:40.128Z,23.45
2022-12-18T09:47:59.404Z,20.95
2022-12-18T09:50:30.655Z,21.47
2022-12-18T09:53:02.396Z,21.15
2022-12-18T09:55:38.106Z,23.50
2022-12-18T09:58:16.407Z,21.80
2022-12-18T10:00:48.302Z,19.83
2022-12-18T10:03:16.697Z,23.60
2022-12-18T10:06:08.422Z,23.17
2022-12-18T10:08:55.670Z,23.02
2022-12-18T10:11:55.039Z,22.67
2022-12-18T10:15:16.005Z,20.95
2022-12-18T10:18:01.599Z,22.63
2022-12-18T10:20:40.948Z,22.77
2022-12-18T10:23:18.984Z,22.15
2022-12-18T10:25:55.882Z,25.73
2022-12-18T10:28:23.411Z,22.70
2022-12-18T10:30:49.999Z,31.20
2022-12-18T10:33:30.204Z,26.05
2022-12-18T10:35:57.155Z,21.35
2022-12-18T10:38:31.339Z,21.02
2022-12-18T10:40:57.715Z,29.40
2022-12-18T10:43:28.693Z,26.37
2022-12-18T10:46:12.565Z,29.20
2022-12-18T10:48:58.606Z,24.98
2022-12-18T10:51:38.223Z,34.03
2022-12-18T10:54:14.627Z,25.17
2022-12-18T10:56:41.731Z,27.80
2022-12-18T10:59:13.245Z,30.75
2022-12-18T11:01:55.956Z,24.38
2022-12-18T11:04:25.232Z,30.95
2022-12-18T11:07:01.347Z,32.38
2022-12-18T11:09:38.880Z,25.00
2022-12-18T11:12:18.860Z,34.30
2022-12-18T11:14:49.988Z,33.67
2022-12-18T11:17:26.845Z,38.50
2022-12-18T11:19:59.133Z,30.63
2022-12-18T11:22:32.389Z,36.43
2022-12-18T11:27:56.904Z,33.05
2022-12-18T11:30:34.294Z,34.90
2022-12-18T11:33:22.682Z,37.42
2022-12-18T11:36:03.640Z,32.20
2022-12-18T11:38:35.458Z,35.20
2022-12-18T11:41:58.973Z,38.58
2022-12-18T11:44:30.853Z,38.85
2022-12-18T11:47:04.184Z,42.67
2022-12-18T11:49:37.219Z,43.33
2022-12-18T11:52:10.239Z,43.25
2022-12-18T11:54:37.104Z,44.47
2022-12-18T11:57:48.314Z,44.28
2022-12-18T12:00:37.395Z,43.75
2022-12-18T12:03:55.432Z,44.67
2022-12-18T12:06:33.012Z,47.08
2022-12-18T12:09:11.444Z,40.78
2022-12-18T12:12:07.544Z,46.88
2022-12-18T12:15:07.710Z,44.25
2022-12-18T12:17:42.553Z,48.83
2022-12-18T12:20:20.443Z,47.90
2022-12-18T12:23:14.330Z,52.95
2022-12-18T12:25:41.568Z,44.38
2022-12-18T12:28:33.447Z,41.00
2022-12-18T12:31:20.057Z,50.07
2022-12-18T12:34:17.674Z,46.25
2022-12-18T12:36:54.579Z,48.60
2022-12-18T12:39:29.269Z,46.03
2022-12-18T12:42:15.231Z,161.30
2022-12-18T12:44:56.023Z,70.80
2022-12-18T12:47:35.053Z,41.65
2022-12-18T12:50:08.095Z,43.78
2022-12-18T12:52:40.887Z,44.78
2022-12-18T12:55:16.929Z,53.50
2022-12-18T12:57:58.183Z,48.87
2022-12-18T13:00:27.933Z,55.13
2022-12-18T13:03:07.473Z,54.05
2022-12-18T13:05:44.302Z,49.22
2022-12-18T13:08:13.166Z,52.40
2022-12-18T13:10:42.842Z,54.73
2022-12-18T13:13:13.387Z,49.78
2022-12-18T13:15:44.677Z,57.40
2022-12-18T13:18:16.253Z,50.55
2022-12-18T13:20:43.087Z,46.50
2022-12-18T13:23:40.798Z,56.03
2022-12-18T13:26:07.539Z,55.47
2022-12-18T13:28:34.675Z,49.25
2022-12-18T13:31:02.425Z,56.63
2022-12-18T13:33:34.715Z,52.50
2022-12-18T13:36:24.242Z,44.37
2022-12-18T13:42:31.731Z,56.45
2022-12-18T13:44:58.810Z,56.40
2022-12-18T13:47:44.536Z,40.67
2022-12-18T13:50:28.555Z,49.43
2022-12-18T13:52:59.062Z,52.92
2022-12-18T13:55:26.083Z,51.13
2022-12-18T13:58:04.957Z,55.83
2022-12-18T14:00:32.205Z,52.40
2022-12-18T14:03:00.651Z,53.57
2022-12-18T14:05:38.620Z,51.17
2022-12-18T14:08:15.401Z,54.72
2022-12-18T14:10:48.644Z,50.40
2022-12-18T14:13:24.835Z,55.95
2022-12-18T14:15:51.565Z,48.47
2022-12-18T14:18:27.316Z,48.63
2022-12-18T14:20:57.754Z,54.05
2022-12-18T14:23:27.238Z,49.05
2022-12-18T14:25:53.603Z,61.20
2022-12-18T14:28:20.015Z,51.50
2022-12-18T14:30:47.302Z,55.95
2022-12-18T14:33:17.208Z,44.53
2022-12-18T14:36:05.313Z,49.17
2022-12-18T14:38:39.719Z,47.30
2022-12-18T14:41:06.160Z,48.83
2022-12-18T14:43:34.992Z,46.55
2022-12-18T14:46:03.653Z,45.85
2022-12-18T14:48:36.177Z,53.15
2022-12-18T14:51:06.472Z,50.70
2022-12-18T14:53:49.146Z,40.33
2022-12-18T14:56:27.392Z,51.45
2022-12-18T14:59:00.534Z,49.28
2022-12-18T15:01:34.335Z,45.00
2022-12-18T15:04:02.793Z,43.63
2022-12-18T15:06:41.033Z,47.47
2022-12-18T15:09:24.435Z,44.90
2022-12-18T15:11:57.727Z,35.50
2022-12-18T15:14:41.546Z,49.33
2022-12-18T15:17:24.131Z,46.75
2022-12-18T15:20:01.264Z,47.57
2022-12-18T15:22:29.159Z,46.78
2022-12-18T15:24:57.415Z,48.53
2022-12-18T15:27:39.160Z,46.95
2022-12-18T15:30:08.863Z,52.92
2022-12-18T15:32:39.254Z,56.57
2022-12-18T15:35:11.889Z,55.10
2022-12-18T15:37:38.878Z,41.22
2022-12-18T15:40:06.973Z,41.00
2022-12-18T15:42:51.684Z,58.83
2022-12-18T15:45:18.087Z,43.33
2022-12-18T15:47:45.820Z,46.92
2022-12-18T15:50:12.308Z,56.55
2022-12-18T15:52:44.959Z,53.05
2022-12-18T15:55:32.491Z,53.67
2022-12-18T15:57:58.905Z,56.50
2022-12-18T16:00:25.603Z,50.33
2022-12-18T16:02:52.258Z,49.55
2022-12-18T16:05:21.268Z,52.10
2022-12-18T16:07:48.102Z,46.35
2022-12-18T16:10:14.887Z,51.40
2022-12-18T16:12:42.489Z,41.42
2022-12-18T16:15:12.394Z,44.55
2022-12-18T16:17:38.941Z,36.67
2022-12-18T16:20:05.970Z,49.85
2022-12-18T16:22:32.428Z,46.60
2022-12-18T16:24:58.928Z,48.72
2022-12-18T16:27:25.887Z,48.15
2022-12-18T16:29:52.525Z,45.13
2022-12-18T16:32:21.583Z,44.33
2022-12-18T16:34:48.337Z,46.40
2022-12-18T16:37:16.191Z,48.83
2022-12-18T16:39:43.081Z,248.52
2022-12-18T16:42:20.173Z,129.05
2022-12-18T16:44:48.813Z,52.05
2022-12-18T16:47:16.207Z,48.43
2022-12-18T16:49:45.285Z,46.72
2022-12-18T16:52:12.396Z,45.72
2022-12-18T16:54:38.806Z,44.50
2022-12-18T16:57:05.417Z,50.25
2022-12-18T16:59:32.410Z,44.63
2022-12-18T17:01:58.927Z,47.90
2022-12-18T17:04:25.516Z,45.88
2022-12-18T17:06:53.689Z,39.92
2022-12-18T17:09:23.969Z,46.17
2022-12-18T17:11:50.543Z,47.87
2022-12-18T17:14:19.657Z,47.25
2022-12-18T17:16:47.138Z,51.47
2022-12-18T17:19:17.229Z,41.15
2022-12-18T17:21:45.311Z,55.40
2022-12-18T17:24:11.837Z,53.13
2022-12-18T17:26:38.359Z,59.17
2022-12-18T17:29:05.240Z,53.90
2022-12-18T17:31:32.837Z,51.03
2022-12-18T17:34:01.900Z,37.25
2022-12-18T17:36:29.257Z,47.13
2022-12-18T17:38:57.619Z,43.05
2022-12-18T17:41:25.228Z,43.53
2022-12-18T17:43:56.850Z,42.78
2022-12-18T17:46:24.257Z,39.40
2022-12-18T17:48:50.744Z,47.30
2022-12-18T17:51:18.144Z,45.60
2022-12-18T17:53:44.879Z,45.85
2022-12-18T17:56:17.004Z,44.22
2022-12-18T17:58:43.832Z,46.95
2022-12-18T18:01:13.748Z,44.13
2022-12-18T18:03:42.866Z,47.20
2022-12-18T18:06:10.029Z,46.17
2022-12-18T18:08:37.513Z,53.78
2022-12-18T18:11:29.150Z,40.38
2022-12-18T18:14:01.353Z,51.63
2022-12-18T18:16:48.143Z,42.00
2022-12-18T18:19:18.145Z,41.70
2022-12-18T18:21:47.344Z,41.63
2022-12-18T18:24:15.927Z,49.85
2022-12-18T18:26:42.929Z,46.83
2022-12-18T18:29:15.117Z,46.90
2022-12-18T18:31:41.719Z,41.30
2022-12-18T18:34:13.796Z,36.55
2022-12-18T18:36:40.270Z,50.80
2022-12-18T18:39:06.787Z,49.30
2022-12-18T18:41:35.583Z,51.45
2022-12-18T18:44:02.019Z,62.85
2022-12-18T18:46:28.412Z,48.13
2022-12-18T18:48:56.050Z,47.22
2022-12-18T18:51:33.155Z,53.00
2022-12-18T18:54:01.389Z,47.25
2022-12-18T18:56:56.215Z,50.28
2022-12-18T18:59:14.183Z,60.15
2022-12-18T19:01:40.955Z,43.58
2022-12-18T19:04:07.594Z,42.93
2022-12-18T19:06:34.378Z,46.03
2022-12-18T19:09:04.264Z,49.08
2022-12-18T19:11:49.233Z,41.97
2022-12-18T19:14:16.034Z,49.00
2022-12-18T19:16:43.675Z,41.07
2022-12-18T19:19:10.761Z,51.42
2022-12-18T19:21:38.203Z,40.38
2022-12-18T19:24:05.483Z,50.40
2022-12-18T19:26:31.998Z,45.60
2022-12-18T19:29:03.638Z,50.23
2022-12-18T19:31:35.217Z,46.67
2022-12-18T19:34:04.784Z,46.15
2022-12-18T19:36:37.052Z,43.15
2022-12-18T19:39:10.160Z,48.15
2022-12-18T19:41:36.801Z,38.63
2022-12-18T19:44:07.578Z,42.92
2022-12-18T19:46:35.781Z,46.90
2022-12-18T19:49:02.946Z,44.22
2022-12-18T19:51:31.198Z,38.40
2022-12-18T19:54:01.164Z,45.13
2022-12-18T19:56:30.896Z,40.88
2022-12-18T19:58:57.439Z,39.45
2022-12-18T20:01:25.361Z,43.75
2022-12-18T20:03:54.649Z,41.22
2022-12-18T20:06:35.046Z,45.03
2022-12-18T20:09:06.693Z,56.00
2022-12-18T20:11:36.395Z,38.40
2022-12-18T20:14:12.297Z,36.17
2022-12-18T20:16:38.964Z,42.47
2022-12-18T20:19:06.531Z,42.93
2022-12-18T20:21:33.294Z,40.22
2022-12-18T20:24:01.282Z,40.83
2022-12-18T20:26:28.099Z,45.50
2022-12-18T20:28:55.127Z,42.35
2022-12-18T20:31:22.187Z,40.60
2022-12-18T20:33:50.970Z,45.92
2022-12-18T20:36:22.096Z,44.38
2022-12-18T20:38:58.066Z,39.00
2022-12-18T20:41:32.790Z,33.28
2022-12-18T20:44:22.820Z,44.57
2022-12-18T20:47:00.630Z,36.83
2022-12-18T20:49:37.561Z,33.28
2022-12-18T20:52:06.513Z,40.03
2022-12-18T20:54:33.088Z,38.75
2022-12-18T20:56:59.662Z,32.47
2022-12-18T20:59:28.585Z,39.97
2022-12-18T21:01:55.673Z,45.33
2022-12-18T21:04:23.807Z,44.45
2022-12-18T21:07:02.620Z,42.00
2022-12-18T21:09:37.721Z,39.63
2022-12-18T21:12:42.751Z,43.33
2022-12-18T21:15:17.546Z,49.40
2022-12-18T21:17:44.828Z,35.60
2022-12-18T21:20:17.610Z,37.55
2022-12-18T21:22:44.756Z,41.77
2022-12-18T21:25:16.452Z,42.67
2022-12-18T21:27:42.851Z,44.15
2022-12-18T21:30:09.789Z,40.03
2022-12-18T21:32:36.366Z,45.47
2022-12-18T21:35:03.025Z,42.60
2022-12-18T21:37:29.401Z,44.90
2022-12-18T21:39:55.823Z,45.72
2022-12-18T21:42:40.877Z,34.58
2022-12-18T21:45:07.774Z,43.15
2022-12-18T21:47:34.183Z,42.37
2022-12-18T21:50:00.589Z,38.45
2022-12-18T21:52:31.582Z,38.28
2022-12-18T21:55:08.027Z,39.75
2022-12-18T21:57:35.586Z,38.38
2022-12-18T22:00:02.948Z,43.90
2022-12-18T22:02:29.700Z,46.63
2022-12-18T22:04:56.267Z,46.03
2022-12-18T22:07:22.948Z,45.47
2022-12-18T22:09:49.659Z,51.63
2022-12-18T22:12:35.155Z,32.53
2022-12-18T22:15:04.325Z,42.42
2022-12-18T22:17:30.760Z,44.35
2022-12-18T22:19:57.211Z,46.45
2022-12-18T22:22:23.754Z,43.05
2022-12-18T22:24:50.164Z,35.83
2022-12-18T22:27:16.600Z,44.38
2022-12-18T22:30:01.376Z,41.92
2022-12-18T22:32:30.964Z,37.42
2022-12-18T22:35:07.187Z,34.53
2022-12-18T22:37:34.623Z,36.80
2022-12-18T22:40:03.415Z,33.85
2022-12-18T22:42:34.140Z,40.40
2022-12-18T22:45:00.723Z,36.97
2022-12-18T22:47:30.029Z,45.47
2022-12-18T22:49:57.566Z,43.97
2022-12-18T22:52:25.084Z,43.45
2022-12-18T22:54:53.221Z,37.80
2022-12-18T22:57:21.626Z,39.85
2022-12-18T22:59:48.939Z,33.10
2022-12-18T23:02:15.481Z,49.33
2022-12-18T23:04:41.981Z,35.40
2022-12-18T23:07:08.448Z,36.92
2022-12-18T23:09:37.654Z,35.90
2022-12-18T23:12:04.324Z,41.78
2022-12-18T23:14:31.779Z,33.40
2022-12-18T23:16:58.189Z,43.42
2022-12-18T23:19:25.358Z,41.53
2022-12-18T23:21:51.820Z,42.60
2022-12-18T23:24:20.917Z,41.95
2022-12-18T23:26:47.478Z,39.53
2022-12-18T23:29:14.070Z,42.08
2022-12-18T23:31:40.484Z,44.90
2022-12-18T23:34:07.836Z,38.15
2022-12-18T23:36:43.544Z,36.33
2022-12-18T23:39:21.609Z,45.80
2022-12-18T23:42:00.646Z,42.78
2022-12-18T23:44:27.717Z,37.83
2022-12-18T23:46:54.407Z,40.42
2022-12-18T23:49:20.836Z,34.90
2022-12-18T23:51:47.238Z,35.37
2022-12-18T23:54:13.728Z,42.78
2022-12-18T23:56:40.111Z,47.60
2022-12-18T23:59:06.532Z,45.75
